Blue Anchor, New Jersey
Current Conditions -  °F | °C
As of 10:54 AM on Friday 19 Dec 2014 (Local Time) from KACY Reporting Station
Overcast Overcast  
Wind Chill: 29°   Ceiling: 3500
Heat Index: 38°   Visibility: 10mi
Dew Point: 25°   Wind: 17mph
Humidity: 60%   Direction: 300°WNW
Pressure: 30.07"   Gusts: NA
Location:  39.637°N, 74.7602°W
Report Text: KACY 191554Z 30015KT 10SM OVC035 03/M04 A3007 RMK AO2 SLP184 T00331039
Loading
Personal Weather Stations






























Interactive Weather Map New forecast layout! Learn more

10-Day Weather Forecast

Advertisements
Track Severe Weather on mobile